createdAt,value
2023-05-05T00:00:00.295Z,0
2023-05-05T00:05:00.366Z,0
2023-05-05T00:10:00.296Z,0
2023-05-05T00:15:00.370Z,0
2023-05-05T00:20:00.306Z,0
2023-05-05T00:25:00.305Z,0
2023-05-05T00:30:00.347Z,0
2023-05-05T00:35:00.315Z,0
2023-05-05T00:40:00.299Z,0
2023-05-05T00:45:00.328Z,0
2023-05-05T00:50:00.327Z,0
2023-05-05T00:55:00.316Z,0
2023-05-05T01:00:00.382Z,0
2023-05-05T01:05:00.328Z,0
2023-05-05T01:10:15.003Z,0
2023-05-05T01:15:00.315Z,0
2023-05-05T01:20:00.320Z,0
2023-05-05T01:25:00.383Z,0
2023-05-05T01:30:00.335Z,0
2023-05-05T01:35:00.391Z,0
2023-05-05T01:40:00.310Z,0
2023-05-05T01:45:00.317Z,0
2023-05-05T01:50:00.329Z,0
2023-05-05T01:55:00.336Z,0
2023-05-05T02:00:00.367Z,0
2023-05-05T02:05:00.305Z,0
2023-05-05T02:10:00.330Z,0
2023-05-05T02:15:00.441Z,0
2023-05-05T02:20:00.304Z,0
2023-05-05T02:25:00.299Z,0
2023-05-05T02:30:00.391Z,0
2023-05-05T02:35:00.330Z,0
2023-05-05T02:40:00.388Z,0
2023-05-05T02:45:00.316Z,0
2023-05-05T02:50:00.310Z,0
2023-05-05T02:55:00.335Z,0
2023-05-05T03:00:00.301Z,0
2023-05-05T03:05:00.314Z,0
2023-05-05T03:10:00.349Z,0
2023-05-05T03:15:00.349Z,0
2023-05-05T03:20:04.816Z,0
2023-05-05T03:25:00.334Z,0
2023-05-05T03:30:00.341Z,0
2023-05-05T03:35:00.330Z,0
2023-05-05T03:40:00.343Z,11
2023-05-05T03:45:00.323Z,16
2023-05-05T03:50:00.335Z,23
2023-05-05T03:55:00.332Z,44
2023-05-05T04:00:00.314Z,86
2023-05-05T04:05:00.355Z,142
2023-05-05T04:10:00.318Z,200
2023-05-05T04:15:00.412Z,332
2023-05-05T04:20:00.308Z,521
2023-05-05T04:25:00.325Z,746
2023-05-05T04:30:00.461Z,839
2023-05-05T04:35:00.340Z,1116
2023-05-05T04:40:00.424Z,1349
2023-05-05T04:45:00.300Z,1520
2023-05-05T04:50:00.357Z,5061
2023-05-05T04:55:00.436Z,2724
2023-05-05T05:00:00.357Z,18527
2023-05-05T05:05:00.358Z,18471
2023-05-05T05:10:00.420Z,11192
2023-05-05T05:15:00.383Z,13728
2023-05-05T05:20:00.410Z,2755
2023-05-05T05:25:00.361Z,3074
2023-05-05T05:30:00.376Z,9795
2023-05-05T05:35:00.362Z,27555
2023-05-05T05:40:00.390Z,6592
2023-05-05T05:45:00.373Z,9154
2023-05-05T05:50:00.374Z,6402
2023-05-05T05:55:00.391Z,5309
2023-05-05T06:00:01.976Z,7228
2023-05-05T06:05:00.372Z,3848
2023-05-05T06:10:10.767Z,3848
2023-05-05T06:15:00.373Z,8594
2023-05-05T06:20:00.413Z,7223
2023-05-05T06:25:00.448Z,7290
2023-05-05T06:30:00.338Z,8115
2023-05-05T06:35:00.388Z,4394
2023-05-05T06:40:00.463Z,9698
2023-05-05T06:45:00.384Z,8796
2023-05-05T06:50:00.362Z,4173
2023-05-05T06:55:00.348Z,6196
2023-05-05T07:00:00.387Z,4410
2023-05-05T07:05:00.423Z,4326
2023-05-05T07:10:00.377Z,4933
2023-05-05T07:15:04.796Z,5556
2023-05-05T07:20:00.454Z,6246
2023-05-05T07:25:00.378Z,5878
2023-05-05T07:30:00.364Z,38574
2023-05-05T07:35:00.404Z,6268
2023-05-05T07:40:00.380Z,72912
2023-05-05T07:45:00.365Z,72912
2023-05-05T07:50:00.358Z,44978
2023-05-05T07:55:00.347Z,66973
2023-05-05T08:00:00.333Z,67360
2023-05-05T08:05:00.363Z,70372
2023-05-05T08:10:00.367Z,70925
2023-05-05T08:15:00.369Z,70259
2023-05-05T08:20:00.363Z,70259
2023-05-05T08:25:00.349Z,69743
2023-05-05T08:30:00.377Z,69743
2023-05-05T08:35:00.361Z,69743
2023-05-05T08:40:00.555Z,70049
2023-05-05T08:45:00.376Z,69454
2023-05-05T08:50:00.376Z,6406
2023-05-05T08:55:00.469Z,10368
2023-05-05T09:00:00.474Z,58425
2023-05-05T09:05:00.386Z,18715
2023-05-05T09:10:00.376Z,22574
2023-05-05T09:15:01.624Z,6583
2023-05-05T09:20:00.482Z,9911
2023-05-05T09:25:00.500Z,7750
2023-05-05T09:30:00.397Z,9009
2023-05-05T09:35:00.356Z,27202
2023-05-05T09:40:00.396Z,5724
2023-05-05T09:45:00.513Z,7305
2023-05-05T09:50:00.458Z,9432
2023-05-05T09:55:00.329Z,8377
2023-05-05T10:00:00.470Z,8377
2023-05-05T10:05:02.172Z,7400
2023-05-05T10:10:00.382Z,6589
2023-05-05T10:15:00.361Z,6960
2023-05-05T10:20:00.390Z,6741
2023-05-05T10:25:00.364Z,5328
2023-05-05T10:30:00.460Z,5328
2023-05-05T10:35:00.357Z,5328
2023-05-05T10:40:00.370Z,7616
2023-05-05T10:45:00.440Z,8570
2023-05-05T10:50:00.376Z,8570
2023-05-05T10:55:00.390Z,7616
2023-05-05T11:00:00.359Z,7269
2023-05-05T11:05:00.355Z,9643
2023-05-05T11:10:00.342Z,9643
2023-05-05T11:15:00.370Z,9643
2023-05-05T11:20:00.356Z,7607
2023-05-05T11:25:00.451Z,5271
2023-05-05T11:30:00.342Z,2198
2023-05-05T11:35:00.380Z,3220
2023-05-05T11:40:00.368Z,3628
2023-05-05T11:45:00.382Z,3630
2023-05-05T11:50:00.364Z,1509
2023-05-05T11:55:00.353Z,1912
2023-05-05T12:00:00.352Z,2152
2023-05-05T12:05:00.445Z,1017
2023-05-05T12:10:00.352Z,1017
2023-05-05T12:15:00.364Z,1152
2023-05-05T12:20:00.469Z,2698
2023-05-05T12:25:00.358Z,2698
2023-05-05T12:30:00.359Z,2400
2023-05-05T12:35:00.371Z,2136
2023-05-05T12:40:00.412Z,2136
2023-05-05T12:45:00.341Z,2405
2023-05-05T12:50:00.407Z,2262
2023-05-05T12:55:00.382Z,2137
2023-05-05T13:00:00.447Z,1685
2023-05-05T13:05:00.308Z,1497
2023-05-05T13:10:00.343Z,1497
2023-05-05T13:15:00.413Z,1684
2023-05-05T13:20:00.547Z,1896
2023-05-05T13:25:00.372Z,2400
2023-05-05T13:30:00.401Z,2128
2023-05-05T13:35:00.462Z,2128
2023-05-05T13:40:00.362Z,2128
2023-05-05T13:45:00.357Z,1676
2023-05-05T13:50:00.317Z,1491
2023-05-05T13:55:00.456Z,1678
2023-05-05T14:00:00.485Z,2129
2023-05-05T14:05:00.395Z,3068
2023-05-05T14:10:00.385Z,3905
2023-05-05T14:15:00.362Z,4393
2023-05-05T14:20:00.333Z,4393
2023-05-05T14:25:00.342Z,4393
2023-05-05T14:30:00.394Z,4393
2023-05-05T14:35:00.368Z,4979
2023-05-05T14:40:00.384Z,4413
2023-05-05T14:45:00.352Z,3914
2023-05-05T14:50:00.359Z,3068
2023-05-05T14:55:00.404Z,2425
2023-05-05T15:00:00.362Z,2158
2023-05-05T15:05:00.559Z,5125
2023-05-05T15:10:00.507Z,6557
2023-05-05T15:15:00.493Z,6557
2023-05-05T15:20:00.414Z,6391
2023-05-05T15:25:00.344Z,6391
2023-05-05T15:30:00.397Z,4399
2023-05-05T15:35:00.344Z,2709
2023-05-05T15:40:00.356Z,3975
2023-05-05T15:45:00.512Z,5720
2023-05-05T15:50:00.403Z,5065
2023-05-05T15:55:00.343Z,5065
2023-05-05T16:00:00.359Z,5065
2023-05-05T16:05:00.370Z,5065
2023-05-05T16:10:00.413Z,4476
2023-05-05T16:15:00.385Z,4476
2023-05-05T16:20:00.370Z,4476
2023-05-05T16:25:00.354Z,4476
2023-05-05T16:30:00.389Z,4315
2023-05-05T16:35:00.408Z,3515
2023-05-05T16:40:01.829Z,3551
2023-05-05T16:45:00.356Z,4023
2023-05-05T16:50:00.381Z,4023
2023-05-05T16:55:00.353Z,4023
2023-05-05T17:00:00.348Z,1875
2023-05-05T17:05:00.558Z,1895
2023-05-05T17:10:00.351Z,2750
2023-05-05T17:15:00.593Z,4164
2023-05-05T17:20:00.364Z,4164
2023-05-05T17:25:00.449Z,3991
2023-05-05T17:30:00.503Z,3703
2023-05-05T17:35:00.353Z,3294
2023-05-05T17:40:00.349Z,2844
2023-05-05T17:45:00.513Z,2844
2023-05-05T17:50:00.365Z,2525
2023-05-05T17:55:00.430Z,2246
2023-05-05T18:00:00.378Z,1995
2023-05-05T18:05:00.354Z,1772
2023-05-05T18:10:00.418Z,1772
2023-05-05T18:15:00.428Z,1577
2023-05-05T18:20:00.359Z,1402
2023-05-05T18:25:00.352Z,1209
2023-05-05T18:30:00.372Z,1220
2023-05-05T18:35:00.386Z,1210
2023-05-05T18:40:00.334Z,662
2023-05-05T18:45:00.308Z,521
2023-05-05T18:50:00.394Z,375
2023-05-05T18:55:00.628Z,268
2023-05-05T19:00:00.469Z,163
2023-05-05T19:05:00.849Z,138
2023-05-05T19:10:00.454Z,84
2023-05-05T19:15:00.455Z,51
2023-05-05T19:20:00.511Z,30
2023-05-05T19:25:00.426Z,16
2023-05-05T19:30:00.468Z,9
2023-05-05T19:35:00.599Z,9
2023-05-05T19:40:00.421Z,9
2023-05-05T19:45:00.475Z,2
2023-05-05T19:50:00.457Z,2
2023-05-05T19:55:00.470Z,2
2023-05-05T20:00:00.622Z,2
2023-05-05T20:05:00.447Z,2
2023-05-05T20:10:00.432Z,0
2023-05-05T20:15:00.456Z,0
2023-05-05T20:20:00.500Z,0
2023-05-05T20:25:00.476Z,0
2023-05-05T20:30:00.437Z,0
2023-05-05T20:35:00.511Z,0
2023-05-05T20:40:00.529Z,0
2023-05-05T20:45:00.543Z,0
2023-05-05T20:50:00.498Z,0
2023-05-05T20:55:00.451Z,0
2023-05-05T21:00:00.620Z,0
2023-05-05T21:05:00.503Z,0
2023-05-05T21:10:00.451Z,0
2023-05-05T21:15:00.447Z,0
2023-05-05T21:20:00.495Z,0
2023-05-05T21:25:00.431Z,0
2023-05-05T21:30:00.466Z,0
2023-05-05T21:35:00.503Z,0
2023-05-05T21:40:00.490Z,0
2023-05-05T21:45:00.457Z,0
2023-05-05T21:50:00.528Z,0
2023-05-05T21:55:00.475Z,0
2023-05-05T22:00:00.460Z,0
2023-05-05T22:05:00.477Z,0
2023-05-05T22:10:00.448Z,0
2023-05-05T22:15:00.475Z,0
2023-05-05T22:20:00.542Z,0
2023-05-05T22:25:00.488Z,0
2023-05-05T22:30:00.451Z,0
2023-05-05T22:35:00.448Z,0
2023-05-05T22:40:00.451Z,0
2023-05-05T22:45:00.515Z,0
2023-05-05T22:50:00.509Z,0
2023-05-05T22:55:00.567Z,0
2023-05-05T23:00:00.459Z,0
2023-05-05T23:05:00.466Z,0
2023-05-05T23:10:00.446Z,0
2023-05-05T23:15:00.450Z,0
2023-05-05T23:20:00.450Z,0
2023-05-05T23:25:00.544Z,0
2023-05-05T23:30:00.482Z,0
2023-05-05T23:35:00.459Z,0
2023-05-05T23:40:00.452Z,0
2023-05-05T23:45:00.475Z,0
2023-05-05T23:50:00.486Z,0
2023-05-05T23:55:00.504Z,0
